Time;durP1;ratioP1;P1;durP2;ratioP2;P2;SDS_P1;SDS_P2;PMS_P1;PMS_P2;Temp;Humidity;BMP_temperature;BMP_pressure;BME280_temperature;BME280_humidity;BME280_pressure;Samples;Min_cycle;Max_cycle;Signal;HPM_P1;HPM_P2
2023/02/28 00:01:17;;;;;;;1.60;0.75;;;19.50;30.00;;;;;;5044746;28;20021;-53
2023/02/28 00:03:44;;;;;;;1.60;0.98;;;19.50;30.00;;;;;;5046067;28;20373;-53
2023/02/28 00:06:10;;;;;;;0.98;0.85;;;19.50;30.00;;;;;;5047747;28;20053;-54
2023/02/28 00:08:36;;;;;;;1.60;0.77;;;19.40;30.00;;;;;;5049367;28;20747;-55
2023/02/28 00:11:08;;;;;;;1.60;0.80;;;19.50;30.00;;;;;;5046527;28;20029;-52
2023/02/28 00:13:39;;;;;;;2.00;0.70;;;19.50;30.00;;;;;;5046719;28;20041;-52
2023/02/28 00:16:10;;;;;;;1.67;0.85;;;19.50;29.90;;;;;;5046686;28;20080;-51
2023/02/28 00:18:37;;;;;;;1.30;0.80;;;19.50;29.90;;;;;;5047273;28;20110;-52
2023/02/28 00:21:03;;;;;;;2.03;0.60;;;19.50;29.90;;;;;;5049362;28;20036;-51
2023/02/28 00:23:30;;;;;;;1.85;0.80;;;19.40;29.80;;;;;;5045539;28;20037;-49
2023/02/28 00:25:56;;;;;;;1.60;0.90;;;19.50;29.90;;;;;;5046303;28;20044;-52
2023/02/28 00:28:22;;;;;;;1.73;0.80;;;19.40;29.80;;;;;;5047071;28;20518;-52
2023/02/28 00:30:47;;;;;;;1.05;0.68;;;19.40;29.80;;;;;;5049094;28;20060;-51
2023/02/28 00:33:13;;;;;;;1.10;0.68;;;19.40;29.80;;;;;;5048187;28;20032;-50
2023/02/28 00:35:40;;;;;;;1.88;1.00;;;19.40;29.80;;;;;;5049355;28;20099;-52
2023/02/28 00:38:08;;;;;;;2.83;0.90;;;19.50;29.80;;;;;;5045706;28;20025;-52
2023/02/28 00:40:34;;;;;;;1.55;0.80;;;19.40;29.80;;;;;;5047298;28;20025;-51
2023/02/28 00:43:00;;;;;;;2.05;1.20;;;19.40;29.80;;;;;;5050131;28;20021;-53
2023/02/28 00:45:26;;;;;;;2.05;0.80;;;19.40;29.80;;;;;;5050469;28;20360;-54
2023/02/28 00:47:51;;;;;;;2.78;0.90;;;19.40;29.80;;;;;;5041462;28;20112;-50
2023/02/28 00:50:19;;;;;;;1.42;0.90;;;19.40;29.80;;;;;;5077283;28;20033;-52
2023/02/28 00:52:46;;;;;;;1.67;0.68;;;19.40;29.80;;;;;;5050979;28;20490;-48
2023/02/28 00:55:14;;;;;;;1.42;0.80;;;19.40;29.70;;;;;;5052200;28;20099;-52
2023/02/28 00:57:39;;;;;;;2.03;0.80;;;19.40;29.70;;;;;;5051114;28;20133;-53
2023/02/28 01:00:07;;;;;;;1.30;0.80;;;19.40;29.70;;;;;;5051535;28;20419;-50
2023/02/28 01:02:33;;;;;;;1.20;0.80;;;19.40;29.70;;;;;;5050832;28;20037;-54
2023/02/28 01:04:59;;;;;;;1.50;0.80;;;19.40;29.70;;;;;;5051218;28;20451;-49
2023/02/28 01:07:25;;;;;;;2.58;0.85;;;19.40;29.70;;;;;;5050341;28;20033;-50
2023/02/28 01:09:50;;;;;;;2.03;0.80;;;19.40;29.70;;;;;;5043478;28;20026;-52
2023/02/28 01:12:16;;;;;;;1.98;0.90;;;19.40;29.80;;;;;;5052411;28;20057;-50
2023/02/28 01:14:42;;;;;;;1.98;0.88;;;19.50;29.80;;;;;;5050391;28;20043;-51
2023/02/28 01:17:09;;;;;;;2.67;0.93;;;19.40;29.80;;;;;;5049782;28;20029;-52
2023/02/28 01:19:35;;;;;;;1.50;0.80;;;19.40;29.70;;;;;;5047299;28;20036;-54
2023/02/28 01:22:06;;;;;;;2.10;0.82;;;19.40;29.70;;;;;;5051909;28;20036;-54
2023/02/28 01:24:32;;;;;;;1.77;0.70;;;19.40;29.70;;;;;;5050747;28;20415;-53
2023/02/28 01:26:59;;;;;;;1.67;0.90;;;19.40;29.70;;;;;;5050445;28;20341;-52
2023/02/28 01:29:24;;;;;;;1.27;0.80;;;19.40;29.70;;;;;;5051820;28;20053;-53
2023/02/28 01:31:52;;;;;;;1.98;0.88;;;19.40;29.70;;;;;;5050521;28;20434;-51
2023/02/28 01:34:19;;;;;;;2.67;0.80;;;19.40;29.80;;;;;;5046171;28;20028;-51
2023/02/28 01:36:45;;;;;;;1.20;0.80;;;19.40;29.70;;;;;;5051276;28;20094;-50
2023/02/28 01:39:12;;;;;;;1.45;0.70;;;19.40;29.70;;;;;;5052073;28;20017;-53
2023/02/28 01:41:39;;;;;;;0.90;0.63;;;19.40;29.70;;;;;;5049404;28;20428;-51
2023/02/28 01:44:44;;;;;;;1.42;0.80;;;19.40;29.70;;;;;;5050971;28;20017;-52
2023/02/28 01:47:10;;;;;;;2.00;0.95;;;19.40;29.70;;;;;;5049417;28;20028;-50
2023/02/28 01:49:37;;;;;;;1.58;0.82;;;19.40;29.70;;;;;;5052364;28;20021;-53
2023/02/28 01:52:03;;;;;;;1.60;0.75;;;19.40;29.70;;;;;;5047802;28;20047;-51
2023/02/28 01:54:33;;;;;;;1.60;0.80;;;19.40;29.70;;;;;;5050917;28;20025;-53
2023/02/28 01:57:05;;;;;;;2.13;0.75;;;19.40;29.70;;;;;;5047429;28;20129;-52
2023/02/28 01:59:38;;;;;;;2.28;0.80;;;19.40;29.70;;;;;;5043608;28;20025;-53
2023/02/28 02:02:04;;;;;;;1.20;0.75;;;19.40;29.70;;;;;;5045106;28;20067;-53
2023/02/28 02:04:41;;;;;;;2.22;0.90;;;19.30;29.70;;;;;;5049302;28;20049;-51
2023/02/28 02:07:08;;;;;;;1.00;0.65;;;19.40;29.70;;;;;;5051012;28;20029;-52
2023/02/28 02:09:34;;;;;;;2.00;0.80;;;19.30;29.70;;;;;;5047859;28;20456;-52
2023/02/28 02:12:26;;;;;;;2.00;0.90;;;19.40;29.80;;;;;;5051340;28;20119;-52
2023/02/28 02:15:05;;;;;;;1.65;0.80;;;19.40;29.70;;;;;;5072884;28;20083;-49
2023/02/28 02:17:39;;;;;;;2.15;0.80;;;19.40;29.80;;;;;;5048662;28;20353;-50
2023/02/28 02:20:35;;;;;;;1.35;0.90;;;19.40;29.70;;;;;;5051154;28;20028;-52
2023/02/28 02:23:36;;;;;;;1.05;0.63;;;19.40;29.80;;;;;;5049681;28;20044;-49
2023/02/28 02:26:38;;;;;;;2.22;0.90;;;19.40;29.80;;;;;;5038762;28;20063;-52
2023/02/28 02:29:22;;;;;;;1.38;0.80;;;19.40;29.70;;;;;;5051004;28;20029;-52
2023/02/28 02:31:56;;;;;;;0.95;0.70;;;19.30;29.70;;;;;;5048794;28;20025;-48
2023/02/28 02:34:37;;;;;;;1.90;0.90;;;19.30;29.70;;;;;;5046052;28;20146;-49
2023/02/28 02:37:20;;;;;;;1.35;0.80;;;19.30;29.70;;;;;;5049239;28;20464;-48
2023/02/28 02:40:27;;;;;;;1.27;0.80;;;19.30;29.70;;;;;;5051236;28;20046;-48
2023/02/28 02:43:05;;;;;;;1.85;0.80;;;19.30;29.70;;;;;;5049848;28;20047;-49
2023/02/28 02:45:35;;;;;;;1.35;0.80;;;19.30;29.70;;;;;;5045644;28;20382;-51
2023/02/28 02:48:04;;;;;;;1.73;0.93;;;19.30;29.70;;;;;;5046251;28;20039;-48
2023/02/28 02:50:37;;;;;;;2.20;1.00;;;19.30;29.60;;;;;;5048298;28;20033;-47
2023/02/28 02:53:06;;;;;;;2.10;1.10;;;19.30;29.70;;;;;;5050099;28;20031;-49
2023/02/28 02:55:46;;;;;;;1.70;0.82;;;19.30;29.70;;;;;;5065934;28;20333;-52
2023/02/28 02:58:16;;;;;;;1.95;1.00;;;19.30;29.70;;;;;;5045247;28;20123;-50
2023/02/28 03:00:51;;;;;;;1.65;0.70;;;19.30;29.60;;;;;;5050742;28;20033;-51
2023/02/28 03:03:20;;;;;;;;;;;19.30;29.60;;;;;;5045778;28;20033;-48
2023/02/28 03:05:49;;;;;;;2.33;1.00;;;19.30;29.60;;;;;;5052235;28;19909;-48
2023/02/28 03:08:15;;;;;;;4.07;0.93;;;19.30;29.60;;;;;;5047212;28;20021;-49
2023/02/28 03:10:44;;;;;;;1.75;1.00;;;19.30;29.60;;;;;;5050372;28;20045;-51
2023/02/28 03:13:24;;;;;;;1.95;0.95;;;19.30;29.60;;;;;;5046170;28;20091;-50
2023/02/28 03:16:28;;;;;;;3.50;1.15;;;19.30;29.60;;;;;;5048020;28;20442;-48
2023/02/28 03:19:24;;;;;;;2.15;0.95;;;19.30;29.50;;;;;;5046924;28;20060;-49
2023/02/28 03:22:23;;;;;;;2.00;0.73;;;19.30;29.50;;;;;;5047185;28;20052;-51
2023/02/28 03:25:01;;;;;;;1.50;0.90;;;19.30;29.50;;;;;;5050131;28;20029;-47
2023/02/28 03:27:30;;;;;;;1.30;0.90;;;19.30;29.50;;;;;;5047891;28;20044;-47
2023/02/28 03:30:23;;;;;;;2.70;1.10;;;19.30;29.50;;;;;;5046850;28;20082;-50
2023/02/28 03:33:04;;;;;;;1.40;0.70;;;19.30;29.40;;;;;;5047855;28;20363;-46
2023/02/28 03:35:41;;;;;;;1.35;0.80;;;19.20;29.40;;;;;;5048652;28;20381;-46
2023/02/28 03:38:20;;;;;;;2.00;0.95;;;19.30;29.50;;;;;;5048291;28;20029;-48
2023/02/28 03:40:51;;;;;;;1.92;1.00;;;19.20;29.40;;;;;;5044920;28;20107;-52
2023/02/28 03:43:23;;;;;;;1.25;0.90;;;19.20;29.40;;;;;;5045646;28;20048;-47
2023/02/28 03:45:50;;;;;;;1.30;0.98;;;19.20;29.40;;;;;;5047877;28;20028;-50
2023/02/28 03:48:30;;;;;;;1.73;1.05;;;19.20;29.40;;;;;;5050058;28;20020;-50
2023/02/28 03:50:59;;;;;;;2.00;1.00;;;19.20;29.40;;;;;;5049568;28;20040;-49
2023/02/28 03:54:05;;;;;;;2.65;1.00;;;19.20;29.30;;;;;;5049947;28;20114;-49
2023/02/28 03:56:39;;;;;;;2.40;1.08;;;19.20;29.30;;;;;;5047082;28;20037;-51
2023/02/28 03:59:17;;;;;;;0.95;0.75;;;19.20;29.30;;;;;;5049961;28;20379;-52
2023/02/28 04:01:46;;;;;;;3.15;0.90;;;19.20;29.30;;;;;;5043290;28;20033;-53
2023/02/28 04:04:14;;;;;;;1.85;0.82;;;19.20;29.30;;;;;;5036666;28;20067;-46
2023/02/28 04:06:40;;;;;;;1.58;0.73;;;19.20;29.30;;;;;;5036801;28;20059;-51
2023/02/28 04:09:10;;;;;;;1.83;0.90;;;19.20;29.20;;;;;;5046715;28;20072;-48
2023/02/28 04:11:38;;;;;;;1.30;0.73;;;19.20;29.20;;;;;;5045133;28;20080;-46
2023/02/28 04:14:05;;;;;;;1.23;0.70;;;19.20;29.20;;;;;;5046513;28;20048;-49
2023/02/28 04:16:33;;;;;;;1.75;0.80;;;19.20;29.10;;;;;;5050176;28;20075;-47
2023/02/28 04:19:02;;;;;;;1.15;0.60;;;19.20;29.10;;;;;;5052238;28;20036;-51
2023/02/28 04:21:29;;;;;;;1.63;0.95;;;19.20;29.10;;;;;;5053433;28;20029;-49
2023/02/28 04:24:00;;;;;;;2.30;0.90;;;19.20;29.10;;;;;;5052175;28;20025;-47
2023/02/28 04:26:29;;;;;;;1.63;0.65;;;19.20;29.00;;;;;;5052190;28;20421;-51
2023/02/28 04:28:56;;;;;;;2.85;0.82;;;19.20;29.00;;;;;;5048877;28;20036;-50
2023/02/28 04:31:22;;;;;;;1.58;0.55;;;19.20;29.00;;;;;;5054197;28;20119;-50
2023/02/28 04:33:47;;;;;;;1.50;0.93;;;19.20;29.00;;;;;;5049824;28;20108;-49
2023/02/28 04:36:14;;;;;;;1.52;0.85;;;19.20;28.90;;;;;;5053741;28;20182;-53
2023/02/28 04:38:40;;;;;;;1.65;0.90;;;19.20;28.90;;;;;;5049129;28;20025;-53
2023/02/28 04:41:06;;;;;;;1.52;0.60;;;19.20;28.90;;;;;;5052770;28;20055;-49
2023/02/28 04:43:32;;;;;;;0.80;0.65;;;19.20;28.90;;;;;;5050197;28;20124;-47
2023/02/28 04:46:01;;;;;;;1.45;0.75;;;19.20;28.90;;;;;;5050446;28;20540;-52
2023/02/28 04:48:29;;;;;;;1.02;0.77;;;19.20;28.90;;;;;;5050469;28;20026;-52
2023/02/28 04:50:55;;;;;;;1.70;0.80;;;19.20;28.90;;;;;;5078084;28;20094;-47
2023/02/28 04:53:21;;;;;;;1.60;0.65;;;19.20;28.90;;;;;;5048745;28;20436;-51
2023/02/28 04:55:47;;;;;;;0.82;0.43;;;19.20;28.90;;;;;;5053738;28;20056;-51
2023/02/28 04:58:14;;;;;;;1.05;0.68;;;19.20;29.00;;;;;;5052548;28;20445;-51
2023/02/28 05:00:40;;;;;;;1.55;0.75;;;19.10;28.90;;;;;;5052150;28;20429;-52
2023/02/28 05:03:05;;;;;;;1.23;0.70;;;19.20;28.90;;;;;;5049491;28;20116;-51
2023/02/28 05:05:31;;;;;;;1.38;0.80;;;19.10;28.90;;;;;;5049012;28;20464;-52
2023/02/28 05:07:57;;;;;;;1.20;0.70;;;19.10;28.90;;;;;;5046321;28;20029;-49
2023/02/28 05:10:23;;;;;;;1.55;0.80;;;19.10;29.00;;;;;;5050121;28;20437;-49
2023/02/28 05:12:49;;;;;;;0.93;0.60;;;19.10;29.00;;;;;;5051884;28;20522;-53
2023/02/28 05:15:16;;;;;;;1.73;0.70;;;19.20;29.00;;;;;;5049235;28;20048;-52
2023/02/28 05:17:42;;;;;;;1.90;0.80;;;19.10;29.00;;;;;;5049446;28;20364;-49
2023/02/28 05:20:13;;;;;;;1.17;0.60;;;19.10;29.00;;;;;;5051519;28;20036;-53
2023/02/28 05:22:40;;;;;;;1.40;0.65;;;19.10;29.00;;;;;;5046217;28;20361;-52
2023/02/28 05:25:07;;;;;;;1.95;0.75;;;19.10;29.00;;;;;;5052421;28;20082;-51
2023/02/28 05:27:33;;;;;;;1.40;0.73;;;19.10;29.00;;;;;;5050713;28;20033;-51
2023/02/28 05:29:59;;;;;;;1.33;0.75;;;19.10;29.00;;;;;;5051358;28;20421;-50
2023/02/28 05:32:25;;;;;;;1.05;0.60;;;19.10;29.00;;;;;;5047854;28;20032;-51
2023/02/28 05:34:50;;;;;;;1.17;0.57;;;19.10;29.00;;;;;;5051299;28;20060;-52
2023/02/28 05:37:16;;;;;;;2.53;0.47;;;19.10;29.10;;;;;;5051700;28;20028;-51
2023/02/28 05:39:42;;;;;;;0.73;0.55;;;19.10;29.10;;;;;;5052710;28;20040;-50
2023/02/28 05:42:09;;;;;;;1.13;0.50;;;19.10;29.10;;;;;;5046613;28;20025;-52
2023/02/28 05:44:35;;;;;;;0.80;0.60;;;19.10;29.00;;;;;;5050024;28;20025;-51
2023/02/28 05:47:01;;;;;;;1.05;0.60;;;19.10;29.10;;;;;;5049588;28;20067;-52
2023/02/28 05:49:27;;;;;;;2.50;0.57;;;19.10;29.00;;;;;;5051277;28;20067;-48
2023/02/28 05:51:53;;;;;;;0.70;0.45;;;19.10;29.00;;;;;;5051379;28;20468;-52
2023/02/28 05:54:19;;;;;;;1.40;0.60;;;19.10;29.00;;;;;;5044672;28;20028;-48
2023/02/28 05:56:45;;;;;;;0.73;0.52;;;19.10;29.00;;;;;;5050259;28;20041;-47
2023/02/28 05:59:12;;;;;;;1.23;0.60;;;19.10;29.00;;;;;;5048053;28;20020;-50
2023/02/28 06:01:47;;;;;;;0.55;0.40;;;19.10;29.00;;;;;;5047878;28;20021;-50
2023/02/28 06:04:17;;;;;;;0.50;0.32;;;19.10;29.00;;;;;;5048573;28;20071;-48
2023/02/28 06:06:48;;;;;;;1.42;0.60;;;19.10;29.00;;;;;;5049681;28;20021;-47
2023/02/28 06:09:14;;;;;;;1.08;0.65;;;19.10;29.00;;;;;;5048611;28;20086;-51
2023/02/28 06:11:40;;;;;;;1.42;0.65;;;19.10;29.00;;;;;;5047365;28;20048;-54
2023/02/28 06:14:06;;;;;;;0.77;0.50;;;19.10;29.20;;;;;;5051256;28;20021;-53
2023/02/28 06:16:34;;;;;;;0.93;0.60;;;19.10;29.00;;;;;;5048489;28;20111;-51
2023/02/28 06:19:02;;;;;;;0.50;0.47;;;19.00;28.90;;;;;;5050944;28;20024;-52
2023/02/28 06:21:29;;;;;;;0.80;0.45;;;19.10;29.00;;;;;;5049255;28;20078;-48
2023/02/28 06:23:56;;;;;;;2.63;0.75;;;19.10;29.00;;;;;;5051405;28;20029;-50
2023/02/28 06:26:22;;;;;;;1.15;0.65;;;19.00;29.00;;;;;;5050999;28;20036;-52
2023/02/28 06:28:48;;;;;;;1.98;0.50;;;19.00;29.00;;;;;;5049894;28;20025;-49
2023/02/28 06:31:16;;;;;;;0.50;0.45;;;19.00;29.00;;;;;;5044445;28;20364;-52
2023/02/28 06:33:43;;;;;;;1.13;0.40;;;19.00;29.00;;;;;;5048758;28;20143;-52
2023/02/28 06:36:10;;;;;;;0.70;0.50;;;19.00;29.00;;;;;;5048372;28;20052;-50
2023/02/28 06:38:38;;;;;;;1.08;0.50;;;19.00;28.90;;;;;;5048787;28;20356;-52
2023/02/28 06:41:05;;;;;;;0.95;0.40;;;19.00;28.90;;;;;;5047578;28;20025;-53
2023/02/28 06:43:34;;;;;;;0.93;0.52;;;19.00;28.90;;;;;;5046929;28;20059;-52
2023/02/28 06:46:02;;;;;;;1.15;0.40;;;19.00;28.90;;;;;;5050797;28;20045;-47
2023/02/28 06:48:28;;;;;;;0.80;0.50;;;19.00;28.90;;;;;;5047042;28;20086;-51
2023/02/28 06:51:13;;;;;;;2.08;0.60;;;19.00;28.90;;;;;;5049738;28;20111;-49
2023/02/28 06:53:40;;;;;;;1.55;0.60;;;19.00;28.90;;;;;;5045980;28;20033;-51
2023/02/28 06:56:08;;;;;;;1.15;0.47;;;19.00;28.90;;;;;;5050907;28;20056;-50
2023/02/28 06:58:35;;;;;;;1.40;0.57;;;19.00;28.90;;;;;;5045499;28;20041;-52
2023/02/28 07:01:02;;;;;;;1.58;0.73;;;19.00;28.90;;;;;;5047786;28;20111;-49
2023/02/28 07:03:28;;;;;;;1.27;0.52;;;19.00;28.90;;;;;;5049690;28;21364;-50
2023/02/28 07:05:56;;;;;;;1.10;0.50;;;19.00;28.90;;;;;;5050103;28;20029;-50
2023/02/28 07:08:23;;;;;;;5.03;0.70;;;19.00;28.90;;;;;;5044046;28;20021;-53
2023/02/28 07:10:54;;;;;;;0.82;0.50;;;19.00;28.90;;;;;;5049360;28;20429;-53
2023/02/28 07:13:21;;;;;;;1.42;0.88;;;19.00;29.00;;;;;;5048570;28;20041;-51
2023/02/28 07:16:02;;;;;;;1.10;0.50;;;19.00;29.00;;;;;;5050100;28;20032;-54
2023/02/28 07:18:29;;;;;;;1.23;0.50;;;19.00;29.00;;;;;;5047206;28;20025;-51
2023/02/28 07:20:56;;;;;;;0.95;0.65;;;19.00;29.00;;;;;;5042677;28;20059;-52
2023/02/28 07:23:23;;;;;;;1.02;0.50;;;19.00;29.00;;;;;;5040405;28;20334;-53
2023/02/28 07:25:50;;;;;;;0.93;0.70;;;19.00;28.90;;;;;;5040997;28;20036;-49
2023/02/28 07:28:16;;;;;;;1.98;0.90;;;19.00;28.80;;;;;;5040800;28;20022;-52
2023/02/28 07:30:42;;;;;;;1.05;0.60;;;19.00;28.80;;;;;;5045961;28;20040;-53
2023/02/28 07:33:08;;;;;;;2.10;0.80;;;19.00;28.70;;;;;;5039040;28;22787;-52
2023/02/28 07:35:34;;;;;;;1.80;0.60;;;19.00;29.10;;;;;;5041726;28;20051;-49
2023/02/28 07:38:00;;;;;;;1.80;0.70;;;19.10;28.60;;;;;;5038264;28;20025;-51
2023/02/28 07:40:27;;;;;;;1.45;0.70;;;19.10;28.50;;;;;;5042949;28;20344;-50
2023/02/28 07:42:53;;;;;;;1.17;0.70;;;19.10;28.40;;;;;;5039655;28;20032;-52
2023/02/28 07:45:19;;;;;;;2.25;0.80;;;19.20;28.40;;;;;;5046837;28;20025;-51
2023/02/28 07:47:45;;;;;;;1.02;0.60;;;19.20;28.40;;;;;;5043549;28;20025;-50
2023/02/28 07:50:14;;;;;;;4.03;1.50;;;19.30;28.30;;;;;;5038255;28;20040;-52
2023/02/28 07:52:40;;;;;;;1.58;0.80;;;19.30;28.30;;;;;;5037828;28;20480;-49
2023/02/28 07:55:08;;;;;;;1.83;0.90;;;19.40;28.20;;;;;;5042375;28;20026;-47
2023/02/28 07:57:34;;;;;;;1.20;0.65;;;19.40;28.10;;;;;;5042725;28;20021;-53
2023/02/28 08:00:00;;;;;;;2.03;0.82;;;19.40;28.10;;;;;;5035446;28;20082;-49
2023/02/28 08:02:27;;;;;;;1.25;0.70;;;19.50;28.10;;;;;;5041182;28;20436;-49
2023/02/28 08:04:54;;;;;;;1.88;0.80;;;19.60;28.10;;;;;;5035962;28;20360;-51
2023/02/28 08:07:20;;;;;;;1.58;0.70;;;19.70;28.10;;;;;;5033348;28;20113;-49
2023/02/28 08:09:46;;;;;;;1.58;0.65;;;19.80;28.00;;;;;;5037457;28;20024;-50
2023/02/28 08:12:12;;;;;;;1.65;0.82;;;19.80;28.00;;;;;;5040405;28;20049;-52
2023/02/28 08:14:39;;;;;;;1.65;0.80;;;19.90;28.40;;;;;;5040641;28;20095;-47
2023/02/28 08:17:05;;;;;;;0.63;0.50;;;19.90;27.80;;;;;;5044087;28;20037;-51
2023/02/28 08:19:31;;;;;;;1.10;0.75;;;20.00;27.80;;;;;;5053296;28;20064;-48
2023/02/28 08:21:57;;;;;;;0.60;0.52;;;20.00;27.70;;;;;;5054495;28;20480;-48
2023/02/28 08:24:23;;;;;;;1.52;0.70;;;20.00;27.70;;;;;;5053113;28;20112;-47
2023/02/28 08:26:50;;;;;;;2.38;0.68;;;20.10;27.70;;;;;;5045973;28;20044;-51
2023/02/28 08:29:16;;;;;;;1.50;0.60;;;20.10;27.60;;;;;;5040613;28;20020;-50
2023/02/28 08:31:42;;;;;;;0.55;0.55;;;20.20;27.50;;;;;;5044151;28;20456;-52
2023/02/28 08:34:11;;;;;;;1.67;0.70;;;20.20;27.40;;;;;;5041861;28;20033;-53
2023/02/28 08:36:37;;;;;;;1.00;0.60;;;20.20;27.30;;;;;;5039968;28;20037;-52
2023/02/28 08:39:03;;;;;;;1.80;0.50;;;20.30;27.30;;;;;;5037245;28;20075;-51
2023/02/28 08:41:29;;;;;;;1.60;0.50;;;20.30;27.20;;;;;;5040228;28;20029;-48
2023/02/28 08:43:56;;;;;;;0.57;0.40;;;20.30;27.10;;;;;;5046184;28;20033;-53
2023/02/28 08:46:22;;;;;;;2.80;0.60;;;20.30;27.00;;;;;;5043632;28;20360;-47
2023/02/28 08:48:52;;;;;;;1.40;0.75;;;20.40;26.90;;;;;;5036002;28;20468;-50
2023/02/28 08:51:25;;;;;;;0.40;0.30;;;20.40;26.80;;;;;;5052833;28;20048;-51
2023/02/28 08:54:00;;;;;;;1.08;0.57;;;20.40;26.80;;;;;;5040233;28;20040;-49
2023/02/28 08:56:27;;;;;;;0.70;0.40;;;20.50;26.80;;;;;;5041013;28;20051;-53
2023/02/28 08:58:56;;;;;;;0.75;0.47;;;20.50;26.70;;;;;;5035032;28;20026;-52
2023/02/28 09:01:27;;;;;;;0.68;0.30;;;20.50;26.60;;;;;;5047634;28;20094;-51
2023/02/28 09:03:53;;;;;;;0.70;0.45;;;20.50;26.60;;;;;;5060769;28;20067;-50
2023/02/28 09:06:21;;;;;;;0.68;0.40;;;20.50;26.60;;;;;;5069871;28;20032;-53
2023/02/28 09:08:48;;;;;;;0.60;0.40;;;20.50;26.40;;;;;;5057570;28;20109;-53
2023/02/28 09:11:14;;;;;;;1.25;0.50;;;20.50;26.30;;;;;;5070164;28;20037;-53
2023/02/28 09:13:40;;;;;;;0.77;0.50;;;20.50;26.20;;;;;;5065488;28;20036;-52
2023/02/28 09:16:07;;;;;;;0.73;0.40;;;20.50;26.20;;;;;;5058868;28;20101;-52
2023/02/28 09:18:38;;;;;;;1.23;0.50;;;20.50;26.40;;;;;;5062906;28;20120;-55
2023/02/28 09:21:06;;;;;;;2.00;0.60;;;20.60;26.70;;;;;;5053408;28;20056;-52
2023/02/28 09:23:32;;;;;;;1.08;0.60;;;20.60;26.80;;;;;;5064530;28;20037;-55
2023/02/28 09:25:58;;;;;;;1.80;0.47;;;20.70;27.30;;;;;;5076965;28;20051;-49
2023/02/28 09:28:24;;;;;;;0.40;0.40;;;20.80;26.80;;;;;;5066224;28;20475;-53
2023/02/28 09:30:52;;;;;;;1.80;0.70;;;20.90;26.80;;;;;;5057212;28;20032;-55
2023/02/28 09:33:20;;;;;;;0.93;0.50;;;20.90;26.70;;;;;;5058268;28;20129;-55
2023/02/28 09:35:48;;;;;;;1.08;0.50;;;21.00;26.60;;;;;;5056532;28;20033;-53
2023/02/28 09:38:13;;;;;;;0.50;0.30;;;21.20;26.60;;;;;;5057400;28;20120;-50
2023/02/28 09:40:48;;;;;;;4.53;1.17;;;21.20;26.50;;;;;;5055606;28;20107;-50
2023/02/28 09:43:17;;;;;;;0.50;0.40;;;21.40;26.50;;;;;;5052349;28;20463;-50
2023/02/28 09:45:49;;;;;;;0.90;0.40;;;21.40;26.30;;;;;;5060413;28;20462;-50
2023/02/28 09:48:23;;;;;;;2.05;0.40;;;21.50;26.20;;;;;;5054223;28;20029;-53
2023/02/28 09:51:02;;;;;;;0.50;0.35;;;21.60;25.90;;;;;;5054957;28;20025;-52
2023/02/28 09:53:33;;;;;;;0.90;0.50;;;21.60;25.70;;;;;;5053426;28;20040;-48
2023/02/28 09:56:07;;;;;;;0.82;0.47;;;21.60;25.40;;;;;;5054414;28;20055;-54
2023/02/28 09:58:49;;;;;;;0.60;0.40;;;21.60;25.30;;;;;;5052769;28;20120;-50
2023/02/28 10:01:31;;;;;;;1.02;0.50;;;21.50;25.20;;;;;;5053061;28;20032;-53
2023/02/28 10:04:00;;;;;;;0.65;0.40;;;21.50;25.20;;;;;;5055114;28;20356;-50
2023/02/28 10:06:35;;;;;;;1.73;0.50;;;21.40;25.10;;;;;;5053500;28;20021;-53
2023/02/28 10:09:22;;;;;;;0.73;0.43;;;21.40;25.10;;;;;;5053432;28;20025;-53
2023/02/28 10:11:51;;;;;;;0.45;0.30;;;21.40;25.10;;;;;;5053523;28;20044;-51
2023/02/28 10:14:24;;;;;;;0.85;0.47;;;21.30;25.00;;;;;;5053551;28;20028;-48
2023/02/28 10:16:59;;;;;;;0.95;0.65;;;21.30;25.00;;;;;;5053741;28;20098;-50
2023/02/28 10:19:49;;;;;;;0.60;0.40;;;21.20;25.00;;;;;;5053636;28;20096;-50
2023/02/28 10:22:20;;;;;;;1.00;0.40;;;21.20;25.00;;;;;;5045796;28;20035;-54
2023/02/28 10:24:51;;;;;;;0.65;0.30;;;21.10;25.00;;;;;;5043826;28;20038;-53
2023/02/28 10:27:19;;;;;;;0.70;0.40;;;21.10;24.90;;;;;;5051195;28;20361;-54
2023/02/28 10:29:50;;;;;;;1.20;0.50;;;21.10;24.90;;;;;;5052680;28;20021;-54
2023/02/28 10:32:37;;;;;;;0.93;0.50;;;21.00;24.90;;;;;;5052809;28;20079;-51
2023/02/28 10:35:09;;;;;;;0.40;0.40;;;21.00;24.80;;;;;;5053950;28;20025;-51
2023/02/28 10:37:39;;;;;;;0.55;0.40;;;20.90;24.80;;;;;;5053677;28;20024;-53
2023/02/28 10:40:08;;;;;;;0.70;0.43;;;20.90;24.80;;;;;;5053483;28;20079;-52
2023/02/28 10:42:38;;;;;;;0.70;0.50;;;20.90;24.70;;;;;;5054086;28;20450;-49
2023/02/28 10:45:17;;;;;;;0.88;0.43;;;20.90;24.70;;;;;;5053421;28;20033;-51
2023/02/28 10:48:02;;;;;;;0.82;0.40;;;20.90;24.70;;;;;;5052117;28;20637;-50
2023/02/28 10:50:47;;;;;;;0.52;0.40;;;20.90;24.70;;;;;;5052080;28;21562;-51
2023/02/28 10:53:24;;;;;;;0.50;0.40;;;20.80;24.60;;;;;;5053651;28;20033;-47
2023/02/28 10:55:57;;;;;;;0.47;0.30;;;20.80;24.60;;;;;;5053142;28;20453;-54
2023/02/28 10:58:25;;;;;;;2.05;0.75;;;20.80;24.60;;;;;;5045225;28;20394;-51
2023/02/28 11:00:53;;;;;;;0.68;0.40;;;20.70;24.60;;;;;;5052598;28;20033;-53
2023/02/28 11:03:36;;;;;;;0.77;0.40;;;20.70;24.60;;;;;;5049962;28;20029;-53
2023/02/28 11:06:08;;;;;;;0.57;0.40;;;20.70;24.70;;;;;;5045812;28;20037;-54
2023/02/28 11:08:43;;;;;;;0.52;0.38;;;20.70;24.80;;;;;;5052273;28;20178;-52
2023/02/28 11:11:11;;;;;;;0.75;0.45;;;20.70;24.80;;;;;;5050117;28;20032;-53
2023/02/28 11:13:39;;;;;;;0.73;0.30;;;20.70;25.60;;;;;;5054394;28;20460;-52
2023/02/28 11:16:08;;;;;;;0.77;0.40;;;20.70;26.50;;;;;;5052012;28;20452;-54
2023/02/28 11:18:40;;;;;;;0.63;0.50;;;20.70;26.50;;;;;;5051674;28;20025;-54
2023/02/28 11:21:07;;;;;;;0.88;0.50;;;20.70;26.40;;;;;;5038035;28;20033;-53
2023/02/28 11:23:36;;;;;;;0.75;0.40;;;20.70;26.30;;;;;;5050065;28;20029;-54
2023/02/28 11:26:04;;;;;;;0.90;0.47;;;20.70;26.20;;;;;;5050174;28;20121;-56
2023/02/28 11:28:35;;;;;;;0.47;0.30;;;20.70;26.20;;;;;;5050508;28;20029;-56
2023/02/28 11:31:16;;;;;;;0.30;0.30;;;20.70;27.00;;;;;;5051679;28;20028;-56
2023/02/28 11:33:55;;;;;;;0.22;0.22;;;20.70;27.60;;;;;;5054119;28;20029;-57
2023/02/28 11:36:25;;;;;;;0.30;0.30;;;20.70;27.80;;;;;;5046354;28;20055;-58
2023/02/28 11:38:55;;;;;;;1.08;0.50;;;20.80;27.90;;;;;;5050342;28;20025;-57
2023/02/28 11:41:29;;;;;;;0.70;0.40;;;20.90;27.90;;;;;;5054694;28;20044;-59
2023/02/28 11:44:06;;;;;;;0.75;0.40;;;21.00;27.90;;;;;;5050179;28;20044;-55
2023/02/28 11:46:47;;;;;;;1.70;0.40;;;21.10;27.80;;;;;;5049707;28;20017;-58
2023/02/28 11:49:35;;;;;;;2.53;0.40;;;21.20;27.70;;;;;;5050510;28;20041;-59
2023/02/28 11:52:17;;;;;;;1.00;0.47;;;21.30;27.50;;;;;;5052256;28;20033;-57
2023/02/28 11:54:53;;;;;;;0.40;0.40;;;21.40;27.30;;;;;;5052607;28;20092;-59
2023/02/28 11:57:32;;;;;;;0.90;0.43;;;21.50;27.20;;;;;;5046524;28;20461;-56
2023/02/28 12:00:01;;;;;;;0.45;0.32;;;21.60;27.20;;;;;;5048263;28;20098;-57
2023/02/28 12:02:57;;;;;;;0.75;0.50;;;21.70;27.20;;;;;;5052885;28;20025;-57
2023/02/28 12:05:29;;;;;;;0.60;0.30;;;21.80;27.10;;;;;;5051500;28;20028;-57
2023/02/28 12:08:34;;;;;;;0.82;0.50;;;21.90;27.00;;;;;;5052298;28;20029;-56
2023/02/28 12:11:06;;;;;;;1.17;0.60;;;22.00;26.90;;;;;;5040724;28;20479;-56
2023/02/28 12:14:05;;;;;;;0.80;0.47;;;22.10;26.80;;;;;;5049242;28;20040;-57
2023/02/28 12:16:40;;;;;;;0.73;0.40;;;22.20;26.70;;;;;;5050563;28;20463;-54
2023/02/28 12:19:12;;;;;;;0.95;0.63;;;22.20;26.60;;;;;;5050312;28;20421;-57
2023/02/28 12:22:13;;;;;;;1.30;0.55;;;22.30;26.50;;;;;;5053081;28;20037;-58
2023/02/28 12:25:06;;;;;;;0.65;0.52;;;22.30;26.40;;;;;;5064608;28;20028;-56
2023/02/28 12:27:42;;;;;;;2.25;0.60;;;22.40;26.30;;;;;;5049444;28;20111;-55
2023/02/28 12:30:32;;;;;;;1.10;0.77;;;22.50;26.30;;;;;;5049250;28;20036;-56
2023/02/28 12:33:04;;;;;;;1.77;0.90;;;22.50;26.30;;;;;;5050811;28;20098;-56
2023/02/28 12:35:43;;;;;;;1.30;0.75;;;22.60;26.30;;;;;;5054799;28;20032;-57
2023/02/28 12:38:19;;;;;;;0.93;0.60;;;22.60;26.30;;;;;;5047303;28;20035;-59
2023/02/28 12:40:54;;;;;;;2.05;0.75;;;22.60;26.30;;;;;;5068829;28;20099;-56
2023/02/28 12:43:25;;;;;;;1.25;0.63;;;22.70;26.40;;;;;;5063286;28;20428;-56
2023/02/28 12:46:00;;;;;;;2.85;1.35;;;22.70;26.40;;;;;;5067700;28;20103;-56
2023/02/28 12:48:39;;;;;;;1.75;1.02;;;22.80;26.50;;;;;;5059632;28;20047;-56
2023/02/28 12:51:07;;;;;;;1.90;1.10;;;22.80;26.40;;;;;;5056695;28;20025;-54
2023/02/28 12:53:42;;;;;;;1.98;1.27;;;22.80;26.40;;;;;;5056010;28;20139;-55
2023/02/28 12:56:32;;;;;;;1.38;1.02;;;22.80;26.30;;;;;;5055500;28;20083;-58
2023/02/28 12:59:06;;;;;;;1.92;0.95;;;22.80;26.20;;;;;;5055766;28;20037;-59
2023/02/28 13:01:38;;;;;;;3.00;0.90;;;22.80;26.10;;;;;;5054373;28;20025;-57
2023/02/28 13:04:34;;;;;;;1.27;0.73;;;22.90;26.10;;;;;;5055903;28;20029;-57
2023/02/28 13:07:19;;;;;;;1.83;1.10;;;22.90;26.00;;;;;;5053961;28;20039;-61
2023/02/28 13:09:58;;;;;;;2.45;1.00;;;22.90;25.90;;;;;;5053534;28;20348;-60